Seabrook, New Jersey
Current Conditions -  °F | °C
As of 8:54 AM on Friday 24 Oct 2014 (Local Time) from KMIV Reporting Station
Overcast Overcast  
Wind Chill: 57°   Ceiling: 3500
Heat Index: 57°   Visibility: 10mi
Dew Point: 47°   Wind: 9mph
Humidity: 69%   Direction: 300°WNW
Pressure: 29.87"   Gusts: NA
Location:  39.4433°N, 75.2554°W
Report Text: KMIV 241254Z AUTO 30008KT 10SM OVC035 14/08 A2987 RMK AO2 SLP112 T01390083
Loading
Personal Weather Stations






























Interactive Weather Map
Tropical Storm Tracking
New forecast layout! Learn more

10-Day Weather Forecast

Advertisements
Track Severe Weather on mobile